createdAt,value
2019-03-11T00:02:16.337Z,6.10
2019-03-11T00:04:57.009Z,6.10
2019-03-11T00:07:36.749Z,6.20
2019-03-11T00:10:16.809Z,6.30
2019-03-11T00:12:58.714Z,6.20
2019-03-11T00:15:39.281Z,6.20
2019-03-11T00:18:19.725Z,6.30
2019-03-11T00:20:59.666Z,6.30
2019-03-11T00:23:39.897Z,6.30
2019-03-11T00:26:19.513Z,6.30
2019-03-11T00:29:00.098Z,6.30
2019-03-11T00:31:40.309Z,6.50
2019-03-11T00:34:20.258Z,6.20
2019-03-11T00:37:00.007Z,6.20
2019-03-11T00:39:40.437Z,6.10
2019-03-11T00:42:20.548Z,6.20
2019-03-11T00:45:00.347Z,6.20
2019-03-11T00:47:41.429Z,6.10
2019-03-11T00:50:21.146Z,6.30
2019-03-11T00:53:01.353Z,6.10
2019-03-11T00:55:41.739Z,6.10
2019-03-11T00:58:21.475Z,6.10
2019-03-11T01:01:01.826Z,6.10
2019-03-11T01:03:42.797Z,6.10
2019-03-11T01:06:22.825Z,6.00
2019-03-11T01:09:02.887Z,6.00
2019-03-11T01:11:42.985Z,6.00
2019-03-11T01:14:23.369Z,5.90
2019-03-11T01:17:03.850Z,5.80
2019-03-11T01:19:43.925Z,5.80
2019-03-11T01:22:24.181Z,5.90
2019-03-11T01:25:04.990Z,5.90
2019-03-11T01:27:44.649Z,5.80
2019-03-11T01:30:25.329Z,5.80
2019-03-11T01:33:04.906Z,5.90
2019-03-11T01:35:45.367Z,5.90
2019-03-11T01:38:24.969Z,5.90
2019-03-11T01:41:05.459Z,5.80
2019-03-11T01:43:45.294Z,5.70
2019-03-11T01:46:25.567Z,5.70
2019-03-11T01:49:05.629Z,5.60
2019-03-11T01:51:45.380Z,5.70
2019-03-11T01:54:25.838Z,5.70
2019-03-11T01:57:06.137Z,5.80
2019-03-11T01:59:45.709Z,5.70
2019-03-11T02:02:25.902Z,5.60
2019-03-11T02:05:06.001Z,5.50
2019-03-11T02:07:45.962Z,5.70
2019-03-11T02:10:26.041Z,5.70
2019-03-11T02:13:05.779Z,5.70
2019-03-11T02:15:46.100Z,5.80
2019-03-11T02:18:26.429Z,5.70
2019-03-11T02:21:06.632Z,5.80
2019-03-11T02:23:48.656Z,5.80
2019-03-11T02:26:28.382Z,5.90
2019-03-11T02:29:08.522Z,5.80
2019-03-11T02:31:48.589Z,5.80
2019-03-11T02:34:28.685Z,5.80
2019-03-11T02:37:08.875Z,5.80
2019-03-11T02:39:48.604Z,5.80
2019-03-11T02:42:28.588Z,5.80
2019-03-11T02:45:08.574Z,5.90
2019-03-11T02:47:49.015Z,5.80
2019-03-11T02:50:28.763Z,5.90
2019-03-11T02:53:08.818Z,5.90
2019-03-11T02:55:50.927Z,5.90
2019-03-11T02:58:31.074Z,5.80
2019-03-11T03:01:30.594Z,5.70
2019-03-11T03:07:05.599Z,5.80
2019-03-11T03:09:46.270Z,5.70
2019-03-11T03:12:26.506Z,5.90
2019-03-11T03:15:06.266Z,5.90
2019-03-11T03:17:46.691Z,5.90
2019-03-11T03:20:26.475Z,5.90
2019-03-11T03:23:06.870Z,5.80
2019-03-11T03:25:46.767Z,5.80
2019-03-11T03:28:26.086Z,5.90
2019-03-11T03:31:06.624Z,5.90
2019-03-11T03:33:46.464Z,6.00
2019-03-11T03:36:26.575Z,5.90
2019-03-11T03:39:06.530Z,5.90
2019-03-11T03:41:46.358Z,5.90
2019-03-11T03:44:26.664Z,6.00
2019-03-11T03:47:07.109Z,5.70
2019-03-11T03:49:46.773Z,5.80
2019-03-11T03:52:27.004Z,5.70
2019-03-11T03:55:07.143Z,5.70
2019-03-11T03:57:47.078Z,5.70
2019-03-11T04:00:27.147Z,5.70
2019-03-11T04:03:06.953Z,5.70
2019-03-11T04:05:46.826Z,5.60
2019-03-11T04:08:27.190Z,5.70
2019-03-11T04:11:07.549Z,5.50
2019-03-11T04:13:47.359Z,5.50
2019-03-11T04:16:27.476Z,5.60
2019-03-11T04:19:07.511Z,5.60
2019-03-11T04:21:47.110Z,5.60
2019-03-11T04:24:27.332Z,5.50
2019-03-11T04:27:07.308Z,5.60
2019-03-11T04:29:47.222Z,5.60
2019-03-11T04:32:27.378Z,5.60
2019-03-11T04:35:07.570Z,5.60
2019-03-11T04:37:47.457Z,5.70
2019-03-11T04:40:27.210Z,5.80
2019-03-11T04:43:07.087Z,5.70
2019-03-11T04:45:47.597Z,5.80
2019-03-11T04:48:28.038Z,5.80
2019-03-11T04:51:08.068Z,5.80
2019-03-11T04:53:47.949Z,5.80
2019-03-11T04:56:27.649Z,5.60
2019-03-11T04:59:07.595Z,5.70
2019-03-11T05:01:48.153Z,5.70
2019-03-11T05:04:28.014Z,5.90
2019-03-11T05:07:08.140Z,5.90
2019-03-11T05:09:48.378Z,5.80
2019-03-11T05:12:28.449Z,5.60
2019-03-11T05:15:07.811Z,5.80
2019-03-11T05:17:48.667Z,5.90
2019-03-11T05:20:29.398Z,6.00
2019-03-11T05:23:09.376Z,5.90
2019-03-11T05:25:49.182Z,6.00
2019-03-11T05:28:29.488Z,6.10
2019-03-11T05:31:09.184Z,6.00
2019-03-11T05:33:49.982Z,6.00
2019-03-11T05:36:29.878Z,5.90
2019-03-11T05:39:12.649Z,5.80
2019-03-11T05:41:52.731Z,5.90
2019-03-11T05:44:33.006Z,5.50
2019-03-11T05:47:12.595Z,5.20
2019-03-11T05:49:54.452Z,4.90
2019-03-11T05:52:34.114Z,4.50
2019-03-11T05:55:14.541Z,4.40
2019-03-11T05:57:54.629Z,4.40
2019-03-11T06:00:34.784Z,4.40
2019-03-11T06:03:15.062Z,4.60
2019-03-11T06:05:54.860Z,4.70
2019-03-11T06:08:35.506Z,4.70
2019-03-11T06:11:15.162Z,4.60
2019-03-11T06:13:55.370Z,4.50
2019-03-11T06:16:37.195Z,4.60
2019-03-11T06:19:17.454Z,4.80
2019-03-11T06:22:07.392Z,4.60
2019-03-11T06:24:48.094Z,4.70
2019-03-11T06:27:27.865Z,4.70
2019-03-11T06:30:08.274Z,4.50
2019-03-11T06:32:47.930Z,4.60
2019-03-11T06:35:28.226Z,4.70
2019-03-11T06:38:08.753Z,4.70
2019-03-11T06:40:48.981Z,4.80
2019-03-11T06:43:29.040Z,4.80
2019-03-11T06:46:09.350Z,4.80
2019-03-11T06:48:49.379Z,4.60
2019-03-11T06:51:29.761Z,4.10
2019-03-11T06:54:09.602Z,3.90
2019-03-11T06:56:49.712Z,3.90
2019-03-11T06:59:29.578Z,3.80
2019-03-11T07:02:09.773Z,3.70
2019-03-11T07:04:49.611Z,3.70
2019-03-11T07:07:29.680Z,3.70
2019-03-11T07:10:09.657Z,3.60
2019-03-11T07:12:49.556Z,3.50
2019-03-11T07:15:29.780Z,3.50
2019-03-11T07:18:09.589Z,3.50
2019-03-11T07:20:49.663Z,3.30
2019-03-11T07:23:29.550Z,3.30
2019-03-11T07:26:09.733Z,3.30
2019-03-11T07:28:49.893Z,3.20
2019-03-11T07:31:30.185Z,3.30
2019-03-11T07:34:10.269Z,3.50
2019-03-11T07:36:50.492Z,3.60
2019-03-11T07:39:32.529Z,3.50
2019-03-11T07:42:12.664Z,3.40
2019-03-11T07:44:52.572Z,3.50
2019-03-11T07:47:32.014Z,3.40
2019-03-11T07:50:12.433Z,3.80
2019-03-11T07:52:51.937Z,3.70
2019-03-11T07:55:32.079Z,3.80
2019-03-11T07:58:12.372Z,4.10
2019-03-11T08:00:54.073Z,4.20
2019-03-11T08:03:34.653Z,4.00
2019-03-11T08:06:18.524Z,4.10
2019-03-11T08:08:56.485Z,4.30
2019-03-11T08:11:36.805Z,4.30
2019-03-11T08:14:17.050Z,4.50
2019-03-11T08:16:57.236Z,4.50
2019-03-11T08:19:36.961Z,4.70
2019-03-11T08:22:17.501Z,4.70
2019-03-11T08:24:57.490Z,4.80
2019-03-11T08:27:37.116Z,4.90
2019-03-11T08:30:17.347Z,5.00
2019-03-11T08:32:57.815Z,5.00
2019-03-11T08:35:38.137Z,5.00
2019-03-11T08:38:17.911Z,5.10
2019-03-11T08:40:59.258Z,4.90
2019-03-11T08:43:38.954Z,4.90
2019-03-11T08:46:18.996Z,5.00
2019-03-11T08:48:58.881Z,5.10
2019-03-11T08:51:39.099Z,5.20
2019-03-11T08:54:19.612Z,5.10
2019-03-11T08:56:59.027Z,5.10
2019-03-11T08:59:39.076Z,5.10
2019-03-11T09:02:19.324Z,5.30
2019-03-11T09:04:59.362Z,5.40
2019-03-11T09:07:39.270Z,5.50
2019-03-11T09:10:19.558Z,5.70
2019-03-11T09:12:59.535Z,5.60
2019-03-11T09:15:39.473Z,5.80
2019-03-11T09:18:19.465Z,5.70
2019-03-11T09:20:59.152Z,5.60
2019-03-11T09:23:39.002Z,5.60
2019-03-11T09:26:19.226Z,5.60
2019-03-11T09:28:59.197Z,5.70
2019-03-11T09:31:39.748Z,5.70
2019-03-11T09:34:19.917Z,5.50
2019-03-11T09:36:59.835Z,5.50
2019-03-11T09:39:39.826Z,5.70
2019-03-11T09:42:20.142Z,5.90
2019-03-11T09:45:00.390Z,5.90
2019-03-11T09:47:40.199Z,6.00
2019-03-11T09:50:20.305Z,6.10
2019-03-11T09:53:00.082Z,6.10
2019-03-11T09:55:40.678Z,6.10
2019-03-11T09:58:20.534Z,6.20
2019-03-11T10:01:00.837Z,6.10
2019-03-11T10:03:40.917Z,6.20
2019-03-11T10:06:20.990Z,6.40
2019-03-11T10:09:00.525Z,6.50
2019-03-11T10:11:40.314Z,6.60
2019-03-11T10:14:20.116Z,6.30
2019-03-11T10:17:00.258Z,6.20
2019-03-11T10:19:40.208Z,6.00
2019-03-11T10:22:20.661Z,5.70
2019-03-11T10:25:00.582Z,5.80
2019-03-11T10:27:41.097Z,5.90
2019-03-11T10:30:21.157Z,5.80
2019-03-11T10:33:01.073Z,5.60
2019-03-11T10:35:40.615Z,5.60
2019-03-11T10:38:20.556Z,5.90
2019-03-11T10:41:00.887Z,6.10
2019-03-11T10:43:41.020Z,6.10
2019-03-11T10:46:20.914Z,6.40
2019-03-11T10:49:00.578Z,6.30
2019-03-11T10:51:40.735Z,6.00
2019-03-11T10:54:20.626Z,6.20
2019-03-11T10:57:00.629Z,5.80
2019-03-11T10:59:41.033Z,5.60
2019-03-11T11:02:20.934Z,5.40
2019-03-11T11:05:00.861Z,5.30
2019-03-11T11:07:40.696Z,5.20
2019-03-11T11:10:21.027Z,5.20
2019-03-11T11:13:01.207Z,5.30
2019-03-11T11:15:41.195Z,5.50
2019-03-11T11:18:21.126Z,5.70
2019-03-11T11:21:01.173Z,6.00
2019-03-11T11:23:41.659Z,6.30
2019-03-11T11:26:21.530Z,6.10
2019-03-11T11:29:02.040Z,6.30
2019-03-11T11:31:42.060Z,6.40
2019-03-11T11:34:22.231Z,6.50
2019-03-11T11:37:02.274Z,6.50
2019-03-11T11:39:42.141Z,6.40
2019-03-11T11:42:22.215Z,6.30
2019-03-11T11:45:02.119Z,6.40
2019-03-11T11:47:42.374Z,6.40
2019-03-11T11:50:21.814Z,6.30
2019-03-11T11:53:01.393Z,6.20
2019-03-11T11:55:41.143Z,6.30
2019-03-11T11:58:21.397Z,6.00
2019-03-11T12:01:01.913Z,5.60
2019-03-11T12:03:41.781Z,5.60
2019-03-11T12:06:21.828Z,5.10
2019-03-11T12:09:01.858Z,5.30
2019-03-11T12:11:41.926Z,5.50
2019-03-11T12:14:22.277Z,5.70
2019-03-11T12:17:02.451Z,5.50
2019-03-11T12:19:42.443Z,5.40
2019-03-11T12:22:22.215Z,5.30
2019-03-11T12:25:02.426Z,5.40
2019-03-11T12:27:53.024Z,5.80
2019-03-11T12:30:25.042Z,5.90
2019-03-11T12:33:04.691Z,6.00
2019-03-11T12:35:44.759Z,6.00
2019-03-11T12:38:24.895Z,6.20
2019-03-11T12:41:04.690Z,6.00
2019-03-11T12:43:44.426Z,5.90
2019-03-11T12:46:12.436Z,6.00
2019-03-11T12:48:59.122Z,5.90
2019-03-11T12:51:50.068Z,5.90
2019-03-11T12:54:34.789Z,6.10
2019-03-11T12:57:21.829Z,6.10
2019-03-11T13:00:02.210Z,6.00
2019-03-11T13:02:42.301Z,6.00
2019-03-11T13:05:22.709Z,6.20
2019-03-11T13:08:02.890Z,6.30
2019-03-11T13:10:42.572Z,6.40
2019-03-11T13:13:23.090Z,6.10
2019-03-11T13:16:02.514Z,5.90
2019-03-11T13:18:42.582Z,6.00
2019-03-11T13:21:22.197Z,5.80
2019-03-11T13:24:02.290Z,5.60
2019-03-11T13:26:42.145Z,5.80
2019-03-11T13:29:22.410Z,6.30
2019-03-11T13:32:02.440Z,6.30
2019-03-11T13:34:42.615Z,6.10
2019-03-11T13:37:23.116Z,6.30
2019-03-11T13:40:03.005Z,6.10
2019-03-11T13:42:43.649Z,6.20
2019-03-11T13:45:24.287Z,6.10
2019-03-11T13:48:03.897Z,6.10
2019-03-11T13:50:43.749Z,6.20
2019-03-11T13:53:24.057Z,6.30
2019-03-11T13:56:03.986Z,6.10
2019-03-11T13:58:43.666Z,6.00
2019-03-11T14:01:24.129Z,6.00
2019-03-11T14:04:04.162Z,6.10
2019-03-11T14:06:44.981Z,6.20
2019-03-11T14:09:24.913Z,6.40
2019-03-11T14:12:05.021Z,6.50
2019-03-11T14:14:45.457Z,6.60
2019-03-11T14:17:25.566Z,6.60
2019-03-11T14:20:05.809Z,6.70
2019-03-11T14:22:45.769Z,6.60
2019-03-11T14:25:25.701Z,6.70
2019-03-11T14:28:05.712Z,6.90
2019-03-11T14:30:45.782Z,7.00
2019-03-11T14:33:26.514Z,7.10
2019-03-11T14:36:06.418Z,7.20
2019-03-11T14:38:46.891Z,7.20
2019-03-11T14:41:27.354Z,7.20
2019-03-11T14:44:07.432Z,7.10
2019-03-11T14:46:47.605Z,7.00
2019-03-11T14:49:27.687Z,6.90
2019-03-11T14:52:07.522Z,7.00
2019-03-11T14:54:47.605Z,7.00
2019-03-11T14:57:27.677Z,6.90
2019-03-11T15:00:07.636Z,6.80
2019-03-11T15:02:47.485Z,6.80
2019-03-11T15:05:27.563Z,6.80
2019-03-11T15:08:07.593Z,6.80
2019-03-11T15:10:47.348Z,7.00
2019-03-11T15:13:27.317Z,6.90
2019-03-11T15:16:07.369Z,6.90
2019-03-11T15:18:47.570Z,6.80
2019-03-11T15:21:27.876Z,6.90
2019-03-11T15:24:07.682Z,7.10
2019-03-11T15:26:47.734Z,7.20
2019-03-11T15:29:27.743Z,7.20
2019-03-11T15:32:07.722Z,7.20
2019-03-11T15:34:47.689Z,7.40
2019-03-11T15:37:27.286Z,7.30
2019-03-11T15:40:07.358Z,7.30
2019-03-11T15:42:46.988Z,7.10
2019-03-11T15:45:37.820Z,7.10
2019-03-11T15:48:09.254Z,7.30
2019-03-11T15:50:49.482Z,7.30
2019-03-11T15:53:29.637Z,7.20
2019-03-11T15:56:09.472Z,7.30
2019-03-11T15:58:49.801Z,7.30
2019-03-11T16:01:30.015Z,7.40
2019-03-11T16:04:10.041Z,7.30
2019-03-11T16:06:50.027Z,7.10
2019-03-11T16:09:30.065Z,7.20
2019-03-11T16:12:10.267Z,7.30
2019-03-11T16:14:50.163Z,7.30
2019-03-11T16:17:29.665Z,7.30
2019-03-11T16:20:10.090Z,7.20
2019-03-11T16:22:50.086Z,7.30
2019-03-11T16:25:30.129Z,7.20
2019-03-11T16:28:10.018Z,7.30
2019-03-11T16:30:50.538Z,6.70
2019-03-11T16:33:30.318Z,6.00
2019-03-11T16:36:10.443Z,5.80
2019-03-11T16:38:50.621Z,5.60
2019-03-11T16:41:30.781Z,5.70
2019-03-11T16:44:10.503Z,5.60
2019-03-11T16:46:50.234Z,5.80
2019-03-11T16:49:31.049Z,5.90
2019-03-11T16:52:11.774Z,6.00
2019-03-11T16:54:51.590Z,6.00
2019-03-11T16:57:31.937Z,6.10
2019-03-11T17:00:11.618Z,6.10
2019-03-11T17:02:52.093Z,6.00
2019-03-11T17:05:31.847Z,6.00
2019-03-11T17:08:12.164Z,6.00
2019-03-11T17:10:52.497Z,6.00
2019-03-11T17:13:32.158Z,6.10
2019-03-11T17:19:10.866Z,6.00
2019-03-11T17:21:50.663Z,6.00
2019-03-11T17:24:30.521Z,5.90
2019-03-11T17:27:10.969Z,5.80
2019-03-11T17:29:50.930Z,5.60
2019-03-11T17:32:35.424Z,5.90
2019-03-11T17:35:15.060Z,5.90
2019-03-11T17:37:55.334Z,6.00
2019-03-11T17:40:35.485Z,6.00
2019-03-11T17:43:15.347Z,5.80
2019-03-11T17:45:55.132Z,5.70
2019-03-11T17:48:35.410Z,5.90
2019-03-11T17:51:15.477Z,5.90
2019-03-11T17:53:55.622Z,5.90
2019-03-11T17:56:36.086Z,6.00
2019-03-11T17:59:15.781Z,6.00
2019-03-11T18:01:55.914Z,5.80
2019-03-11T18:04:35.857Z,5.90
2019-03-11T18:07:16.073Z,5.80
2019-03-11T18:09:56.069Z,5.90
2019-03-11T18:12:35.901Z,5.60
2019-03-11T18:15:16.172Z,5.70
2019-03-11T18:17:56.970Z,5.80
2019-03-11T18:20:37.052Z,5.80
2019-03-11T18:23:16.994Z,6.00
2019-03-11T18:25:56.840Z,6.10
2019-03-11T18:28:36.900Z,6.00
2019-03-11T18:31:17.143Z,6.00
2019-03-11T18:33:57.154Z,6.10
2019-03-11T18:36:37.072Z,6.10
2019-03-11T18:39:19.275Z,6.00
2019-03-11T18:41:59.801Z,6.10
2019-03-11T18:44:39.469Z,6.10
2019-03-11T18:47:19.060Z,6.10
2019-03-11T18:49:59.556Z,6.00
2019-03-11T18:52:39.594Z,6.10
2019-03-11T18:55:20.090Z,6.20
2019-03-11T18:58:00.029Z,6.20
2019-03-11T19:00:40.299Z,6.10
2019-03-11T19:03:20.425Z,6.20
2019-03-11T19:06:00.933Z,6.10
2019-03-11T19:08:41.615Z,6.20
2019-03-11T19:11:21.475Z,6.30
2019-03-11T19:14:01.900Z,6.30
2019-03-11T19:16:42.094Z,6.40
2019-03-11T19:19:21.927Z,6.20
2019-03-11T19:22:02.123Z,6.30
2019-03-11T19:24:42.417Z,6.30
2019-03-11T19:27:22.362Z,6.20
2019-03-11T19:30:01.952Z,6.10
2019-03-11T19:32:42.395Z,6.10
2019-03-11T19:35:22.331Z,6.10
2019-03-11T19:38:02.498Z,6.20
2019-03-11T19:40:42.602Z,6.20
2019-03-11T19:43:22.895Z,6.20
2019-03-11T19:46:03.293Z,6.10
2019-03-11T19:48:43.638Z,6.10
2019-03-11T19:51:23.342Z,6.10
2019-03-11T19:54:03.617Z,6.10
2019-03-11T19:56:43.982Z,6.10
2019-03-11T19:59:24.062Z,6.10
2019-03-11T20:02:04.032Z,6.00
2019-03-11T20:04:44.508Z,6.00
2019-03-11T20:07:24.128Z,6.00
2019-03-11T20:10:04.007Z,5.80
2019-03-11T20:12:44.301Z,5.80
2019-03-11T20:15:24.689Z,5.90
2019-03-11T20:18:04.872Z,6.00
2019-03-11T20:20:45.005Z,6.00
2019-03-11T20:23:12.210Z,6.10
2019-03-11T20:25:59.617Z,6.10
2019-03-11T20:28:46.361Z,6.00
2019-03-11T20:31:32.941Z,5.90
2019-03-11T20:34:20.126Z,5.90
2019-03-11T20:37:07.019Z,5.90
2019-03-11T20:39:54.355Z,5.70
2019-03-11T20:42:41.915Z,5.50
2019-03-11T20:45:28.639Z,5.60
2019-03-11T20:48:15.858Z,5.80
2019-03-11T20:51:03.042Z,5.70
2019-03-11T20:53:50.410Z,5.80
2019-03-11T20:56:37.953Z,5.80
2019-03-11T20:59:25.079Z,5.70
2019-03-11T21:02:12.487Z,5.40
2019-03-11T21:04:59.744Z,5.50
2019-03-11T21:07:46.972Z,5.40
2019-03-11T21:10:15.270Z,5.70
2019-03-11T21:13:02.734Z,5.70
2019-03-11T21:15:50.157Z,5.60
2019-03-11T21:18:37.302Z,5.60
2019-03-11T21:21:24.001Z,5.60
2019-03-11T21:24:13.753Z,5.60
2019-03-11T21:26:59.897Z,5.70
2019-03-11T21:29:47.399Z,5.70
2019-03-11T21:32:34.693Z,5.80
2019-03-11T21:35:22.334Z,5.70
2019-03-11T21:38:10.570Z,5.50
2019-03-11T21:40:57.477Z,5.50
2019-03-11T21:43:44.792Z,5.60
2019-03-11T21:46:32.027Z,5.60
2019-03-11T21:49:19.266Z,5.60
2019-03-11T21:52:06.815Z,5.80
2019-03-11T21:54:53.860Z,5.70
2019-03-11T21:57:41.317Z,5.50
2019-03-11T22:00:32.866Z,5.60
2019-03-11T22:03:05.067Z,5.60
2019-03-11T22:05:45.273Z,5.70
2019-03-11T22:08:25.398Z,5.60
2019-03-11T22:11:05.313Z,5.40
2019-03-11T22:13:45.836Z,5.70
2019-03-11T22:16:25.553Z,5.60
2019-03-11T22:19:05.793Z,5.70
2019-03-11T22:21:45.695Z,5.70
2019-03-11T22:24:26.378Z,5.90
2019-03-11T22:27:06.134Z,5.70
2019-03-11T22:29:46.270Z,5.90
2019-03-11T22:32:26.762Z,5.60
2019-03-11T22:35:12.533Z,5.70
2019-03-11T22:37:48.337Z,5.80
2019-03-11T22:40:28.174Z,5.70
2019-03-11T22:43:08.381Z,5.80
2019-03-11T22:45:48.050Z,5.70
2019-03-11T22:48:28.491Z,5.50
2019-03-11T22:51:08.917Z,5.40
2019-03-11T22:53:51.520Z,5.30
2019-03-11T22:56:30.633Z,5.40
2019-03-11T22:59:11.075Z,5.20
2019-03-11T23:01:51.038Z,5.20
2019-03-11T23:04:31.316Z,5.20
2019-03-11T23:07:10.961Z,5.20
2019-03-11T23:09:51.493Z,5.20
2019-03-11T23:12:31.823Z,5.10
2019-03-11T23:15:12.054Z,5.20
2019-03-11T23:17:51.789Z,5.10
2019-03-11T23:20:32.417Z,5.10
2019-03-11T23:23:12.630Z,5.10
2019-03-11T23:25:52.773Z,5.10
2019-03-11T23:28:32.834Z,5.20
2019-03-11T23:31:13.113Z,5.20
2019-03-11T23:33:52.897Z,5.10
2019-03-11T23:36:32.910Z,5.10
2019-03-11T23:39:12.962Z,5.10
2019-03-11T23:41:53.377Z,5.20
2019-03-11T23:44:33.364Z,5.20
2019-03-11T23:47:13.698Z,5.00
2019-03-11T23:49:53.943Z,4.90
2019-03-11T23:52:33.894Z,5.10
2019-03-11T23:55:13.925Z,5.10
2019-03-11T23:57:53.702Z,5.20
